23NR weather

Whitfield'S East Airport
Fairfield, North Carolina, United States

Public forecast

Using degrees Fahrenheit for public forecast. Weather courtesy of forecast.io.

METAR (pilot weather report)

Closest report is Hyde County Airport, 13.7 nm (25.3 km) E. Retrieved 2019/02/20 10:40 UTC (20 minutes ago):

K7W6 201040Z AUTO 04010KT 10SM SCT055 BKN065 OVC085 04/02 A3046 RMK AO2 T00420020

TAF (pilot weather forecast)

Closest forecast is Elizabeth City Regional Airport & Coast Guard Air Station, 42.1 nm (78.0 km) N. Retrieved 2019/02/20 06:36 UTC (4 hours ago):

TAF TAF KECG 200530Z 2006/2106 01006KT P6SM VCSH OVC060 FM201200 06012KT 5SM -RA BR SCT025 OVC040 FM201800 09011KT 4SM -RA BR OVC007 FM210000 13009KT 4SM -RA BR OVC005 FM210500 21009KT P6SM -RA OVC008